createdAt,value
2023-10-20T00:01:58.481Z,5.00
2023-10-20T00:04:25.301Z,5.75
2023-10-20T00:06:51.749Z,4.00
2023-10-20T00:09:19.335Z,4.00
2023-10-20T00:11:46.351Z,4.60
2023-10-20T00:14:12.750Z,3.60
2023-10-20T00:16:39.299Z,5.40
2023-10-20T00:19:05.901Z,5.00
2023-10-20T00:21:32.440Z,5.00
2023-10-20T00:23:58.957Z,5.00
2023-10-20T00:26:25.398Z,4.50
2023-10-20T00:28:51.861Z,6.60
2023-10-20T00:31:18.534Z,4.40
2023-10-20T00:33:47.111Z,4.75
2023-10-20T00:36:13.576Z,5.00
2023-10-20T00:38:40.143Z,2.80
2023-10-20T00:41:06.923Z,4.00
2023-10-20T00:43:34.926Z,4.67
2023-10-20T00:46:01.381Z,3.75
2023-10-20T00:48:27.965Z,5.75
2023-10-20T00:50:54.633Z,3.00
2023-10-20T00:53:23.580Z,3.75
2023-10-20T00:55:51.305Z,4.60
2023-10-20T00:58:17.748Z,4.75
2023-10-20T01:00:44.317Z,4.60
2023-10-20T01:03:12.130Z,5.00
2023-10-20T01:05:39.223Z,3.50
2023-10-20T01:08:06.036Z,4.20
2023-10-20T01:10:32.458Z,4.50
2023-10-20T01:12:58.875Z,4.00
2023-10-20T01:15:25.335Z,6.60
2023-10-20T01:17:51.804Z,6.00
2023-10-20T01:20:18.393Z,5.20
2023-10-20T01:22:45.956Z,5.40
2023-10-20T01:25:12.408Z,6.00
2023-10-20T01:27:38.895Z,7.80
2023-10-20T01:30:05.735Z,6.00
2023-10-20T01:32:32.341Z,5.00
2023-10-20T01:34:58.840Z,6.00
2023-10-20T01:37:25.380Z,5.67
2023-10-20T01:39:51.890Z,5.40
2023-10-20T01:42:18.310Z,5.60
2023-10-20T01:44:44.869Z,9.00
2023-10-20T01:47:11.430Z,6.60
2023-10-20T01:49:37.958Z,6.00
2023-10-20T01:52:04.494Z,6.00
2023-10-20T01:54:31.417Z,6.75
2023-10-20T01:56:58.053Z,6.00
2023-10-20T01:59:24.874Z,5.60
2023-10-20T02:01:51.553Z,7.40
2023-10-20T02:04:18.837Z,6.40
2023-10-20T02:06:45.258Z,8.80
2023-10-20T02:09:11.737Z,6.40
2023-10-20T02:11:38.232Z,7.25
2023-10-20T02:14:04.802Z,9.00
2023-10-20T02:16:31.822Z,10.00
2023-10-20T02:18:58.565Z,8.80
2023-10-20T02:21:24.980Z,6.80
2023-10-20T02:23:51.432Z,5.80
2023-10-20T02:26:18.064Z,8.80
2023-10-20T02:28:44.546Z,6.20
2023-10-20T02:31:20.206Z,7.25
2023-10-20T02:33:47.266Z,6.75
2023-10-20T02:36:20.892Z,7.80
2023-10-20T02:38:48.255Z,10.00
2023-10-20T02:41:17.729Z,10.00
2023-10-20T02:43:44.867Z,7.00
2023-10-20T02:46:13.518Z,8.00
2023-10-20T02:48:40.116Z,8.40
2023-10-20T02:51:13.503Z,9.00
2023-10-20T02:53:43.041Z,6.75
2023-10-20T02:56:27.471Z,7.50
2023-10-20T02:58:54.019Z,8.00
2023-10-20T03:01:20.594Z,8.50
2023-10-20T03:03:47.280Z,5.75
2023-10-20T03:06:14.210Z,3.20
2023-10-20T03:08:41.007Z,7.00
2023-10-20T03:11:08.674Z,3.40
2023-10-20T03:13:35.738Z,5.60
2023-10-20T03:16:02.198Z,3.80
2023-10-20T03:18:29.572Z,3.00
2023-10-20T03:20:59.372Z,2.00
2023-10-20T03:23:25.875Z,3.50
2023-10-20T03:25:52.709Z,2.00
2023-10-20T03:28:19.112Z,2.00
2023-10-20T03:30:47.586Z,0.50
2023-10-20T03:33:17.751Z,2.60
2023-10-20T03:35:44.323Z,1.75
2023-10-20T03:38:10.848Z,2.00
2023-10-20T03:40:43.467Z,1.75
2023-10-20T03:43:10.677Z,1.75
2023-10-20T03:45:49.773Z,0.00
2023-10-20T03:48:16.368Z,1.25
2023-10-20T03:50:45.172Z,1.00
2023-10-20T03:53:23.440Z,1.80
2023-10-20T03:56:04.208Z,1.20
2023-10-20T03:58:30.736Z,1.75
2023-10-20T04:00:58.665Z,0.60
2023-10-20T04:03:26.452Z,2.00
2023-10-20T04:05:53.595Z,1.00
2023-10-20T04:08:20.690Z,2.00
2023-10-20T04:10:47.481Z,2.00
2023-10-20T04:13:14.057Z,2.00
2023-10-20T04:15:40.866Z,0.40
2023-10-20T04:18:07.529Z,2.00
2023-10-20T04:20:39.043Z,1.00
2023-10-20T04:23:05.873Z,1.00
2023-10-20T04:25:36.459Z,2.00
2023-10-20T04:28:13.192Z,4.00
2023-10-20T04:30:58.069Z,2.00
2023-10-20T04:33:43.132Z,1.60
2023-10-20T04:36:28.250Z,1.80
2023-10-20T04:39:13.290Z,2.00
2023-10-20T04:42:11.822Z,1.00
2023-10-20T04:44:50.180Z,1.00
2023-10-20T04:47:17.005Z,3.00
2023-10-20T04:49:52.735Z,1.00
2023-10-20T04:52:19.179Z,3.00
2023-10-20T04:54:52.392Z,1.25
2023-10-20T04:57:19.035Z,3.00
2023-10-20T04:59:45.880Z,1.00
2023-10-20T05:02:26.756Z,1.60
2023-10-20T05:04:53.335Z,1.00
2023-10-20T05:07:22.384Z,2.00
2023-10-20T05:09:55.772Z,2.80
2023-10-20T05:12:22.290Z,3.00
2023-10-20T05:14:51.048Z,2.25
2023-10-20T05:17:19.340Z,2.75
2023-10-20T05:19:48.937Z,2.00
2023-10-20T05:22:15.458Z,2.00
2023-10-20T05:24:42.386Z,1.00
2023-10-20T05:27:08.798Z,2.00
2023-10-20T05:29:35.274Z,1.40
2023-10-20T05:32:01.756Z,2.00
2023-10-20T05:34:28.157Z,2.00
2023-10-20T05:36:55.957Z,2.00
2023-10-20T05:39:22.769Z,3.00
2023-10-20T05:41:49.336Z,2.50
2023-10-20T05:44:18.796Z,5.00
2023-10-20T05:46:45.338Z,3.80
2023-10-20T05:49:11.904Z,5.00
2023-10-20T05:51:38.413Z,3.40
2023-10-20T05:54:04.954Z,3.50
2023-10-20T05:56:38.737Z,7.75
2023-10-20T05:59:05.262Z,9.00
2023-10-20T06:01:32.465Z,11.00
2023-10-20T06:03:59.430Z,7.00
2023-10-20T06:06:26.071Z,12.00
2023-10-20T06:08:52.524Z,6.40
2023-10-20T06:11:18.961Z,8.20
2023-10-20T06:13:45.402Z,7.00
2023-10-20T06:16:12.407Z,6.00
2023-10-20T06:18:43.355Z,6.00
2023-10-20T06:21:15.126Z,4.00
2023-10-20T06:23:41.747Z,4.00
2023-10-20T06:26:08.390Z,5.00
2023-10-20T06:28:35.189Z,3.60
2023-10-20T06:31:24.887Z,2.80
2023-10-20T06:33:59.458Z,4.00
2023-10-20T06:36:27.563Z,6.00
2023-10-20T06:38:54.306Z,5.75
2023-10-20T06:41:20.753Z,8.00
2023-10-20T06:43:47.947Z,4.25
2023-10-20T06:46:14.542Z,4.00
2023-10-20T06:48:41.016Z,4.00
2023-10-20T06:51:07.428Z,4.60
2023-10-20T06:53:35.367Z,5.00
2023-10-20T06:56:15.218Z,2.75
2023-10-20T06:58:43.248Z,2.60
2023-10-20T07:01:09.752Z,4.00
2023-10-20T07:03:36.486Z,3.00
2023-10-20T07:06:08.372Z,2.50
2023-10-20T07:08:35.156Z,3.00
2023-10-20T07:11:03.273Z,3.00
2023-10-20T07:13:29.724Z,3.75
2023-10-20T07:15:58.268Z,3.00
2023-10-20T07:18:25.080Z,2.00
2023-10-20T07:20:55.207Z,3.40
2023-10-20T07:23:23.514Z,2.75
2023-10-20T07:25:49.968Z,3.00
2023-10-20T07:28:16.377Z,3.00
2023-10-20T07:30:42.773Z,2.00
2023-10-20T07:33:09.350Z,3.00
2023-10-20T07:35:38.563Z,1.75
2023-10-20T07:38:05.494Z,2.00
2023-10-20T07:40:36.061Z,1.50
2023-10-20T07:43:04.701Z,1.40
2023-10-20T07:45:32.659Z,2.00
2023-10-20T07:48:01.696Z,2.60
2023-10-20T07:50:29.293Z,2.00
2023-10-20T07:52:56.447Z,1.60
2023-10-20T07:55:22.985Z,2.60
2023-10-20T07:57:49.464Z,4.00
2023-10-20T08:00:15.947Z,2.00
2023-10-20T08:02:43.152Z,3.00
2023-10-20T08:05:09.951Z,2.67
2023-10-20T08:07:37.908Z,3.00
2023-10-20T08:10:04.556Z,3.00
2023-10-20T08:12:33.562Z,4.00
2023-10-20T08:15:00.010Z,2.60
2023-10-20T08:17:26.503Z,2.75
2023-10-20T08:19:53.002Z,4.00
2023-10-20T08:22:19.428Z,5.50
2023-10-20T08:24:46.618Z,4.75
2023-10-20T08:27:13.997Z,3.50
2023-10-20T08:29:41.085Z,2.80
2023-10-20T08:32:07.560Z,3.20
2023-10-20T08:34:34.069Z,3.00
2023-10-20T08:37:00.602Z,5.00
2023-10-20T08:39:28.903Z,3.60
2023-10-20T08:41:55.422Z,3.00
2023-10-20T08:44:22.118Z,3.50
2023-10-20T08:46:48.981Z,3.00
2023-10-20T08:49:19.483Z,3.00
2023-10-20T08:51:48.565Z,3.60
2023-10-20T08:54:15.068Z,3.50
2023-10-20T08:56:41.722Z,1.00
2023-10-20T08:59:08.233Z,2.00
2023-10-20T09:01:36.068Z,2.20
2023-10-20T09:04:04.178Z,2.00
2023-10-20T09:06:31.510Z,1.60
2023-10-20T09:09:00.373Z,2.50
2023-10-20T09:11:31.846Z,1.00
2023-10-20T09:13:59.696Z,1.40
2023-10-20T09:16:26.271Z,2.00
2023-10-20T09:18:54.695Z,2.20
2023-10-20T09:21:22.660Z,1.40
2023-10-20T09:23:55.516Z,1.00
2023-10-20T09:26:22.687Z,1.40
2023-10-20T09:28:55.053Z,1.00
2023-10-20T09:31:22.803Z,1.00
2023-10-20T09:33:49.688Z,0.40
2023-10-20T09:36:16.395Z,0.75
2023-10-20T09:38:46.678Z,0.50
2023-10-20T09:41:14.138Z,2.75
2023-10-20T09:43:46.541Z,0.40
2023-10-20T09:46:32.852Z,0.00
2023-10-20T09:49:01.336Z,0.00
2023-10-20T09:51:28.118Z,0.80
2023-10-20T09:53:55.796Z,0.75
2023-10-20T09:56:22.878Z,1.00
2023-10-20T09:58:50.771Z,0.00
2023-10-20T10:01:17.323Z,0.00
2023-10-20T10:03:59.155Z,0.00
2023-10-20T10:06:26.576Z,0.00
2023-10-20T10:08:54.084Z,0.00
2023-10-20T10:11:27.359Z,0.00
2023-10-20T10:13:59.216Z,0.00
2023-10-20T10:16:26.892Z,0.60
2023-10-20T10:18:55.904Z,0.00
2023-10-20T10:21:26.314Z,0.00
2023-10-20T10:24:08.945Z,0.00
2023-10-20T10:26:35.579Z,0.00
2023-10-20T10:29:02.121Z,0.00
2023-10-20T10:31:37.846Z,0.00
2023-10-20T10:34:07.248Z,0.00
2023-10-20T10:36:46.501Z,0.40
2023-10-20T10:39:23.927Z,0.00
2023-10-20T10:41:50.917Z,0.00
2023-10-20T10:44:18.191Z,0.00
2023-10-20T10:46:44.746Z,0.00
2023-10-20T10:49:11.374Z,0.00
2023-10-20T10:51:45.853Z,0.75
2023-10-20T10:54:12.278Z,0.00
2023-10-20T10:56:38.775Z,0.00
2023-10-20T10:59:05.255Z,0.00
2023-10-20T11:01:33.027Z,0.00
2023-10-20T11:03:59.588Z,0.00
2023-10-20T11:06:26.151Z,0.00
2023-10-20T11:08:52.822Z,0.40
2023-10-20T11:11:19.328Z,0.00
2023-10-20T11:13:46.151Z,0.00
2023-10-20T11:16:14.387Z,0.00
2023-10-20T11:18:45.267Z,0.60
2023-10-20T11:21:14.690Z,0.00
2023-10-20T11:23:41.235Z,0.00
2023-10-20T11:26:18.439Z,0.00
2023-10-20T11:28:47.877Z,0.00
2023-10-20T11:31:14.430Z,0.00
2023-10-20T11:33:40.993Z,1.00
2023-10-20T11:36:07.895Z,0.00
2023-10-20T11:38:34.377Z,0.40
2023-10-20T11:41:01.329Z,0.00
2023-10-20T11:43:27.850Z,0.00
2023-10-20T11:45:54.576Z,0.40
2023-10-20T11:48:21.990Z,0.00
2023-10-20T11:50:48.525Z,0.00
2023-10-20T11:53:14.991Z,0.00
2023-10-20T11:55:42.206Z,0.20
2023-10-20T11:58:08.652Z,0.50
2023-10-20T12:00:37.513Z,0.40
2023-10-20T12:03:05.562Z,0.00
2023-10-20T12:05:38.104Z,0.75
2023-10-20T12:08:05.800Z,0.00
2023-10-20T12:10:32.850Z,1.00
2023-10-20T12:13:03.540Z,0.50
2023-10-20T12:15:31.480Z,0.00
2023-10-20T12:17:59.168Z,0.00
2023-10-20T12:20:26.107Z,0.00
2023-10-20T12:22:56.462Z,0.00
2023-10-20T12:25:23.171Z,0.40
2023-10-20T12:27:49.798Z,0.00
2023-10-20T12:30:16.939Z,0.60
2023-10-20T12:32:44.510Z,0.40
2023-10-20T12:35:15.215Z,0.50
2023-10-20T12:37:41.797Z,0.60
2023-10-20T12:40:10.090Z,0.40
2023-10-20T12:42:37.254Z,0.00
2023-10-20T12:45:05.706Z,0.60
2023-10-20T12:47:33.827Z,1.60
2023-10-20T12:50:00.483Z,1.00
2023-10-20T12:52:26.959Z,0.50
2023-10-20T12:54:53.911Z,0.80
2023-10-20T12:57:20.579Z,1.00
2023-10-20T12:59:47.070Z,0.50
2023-10-20T13:02:13.555Z,0.80
2023-10-20T13:04:40.074Z,0.60
2023-10-20T13:07:06.488Z,1.00
2023-10-20T13:09:32.956Z,0.00
2023-10-20T13:11:59.611Z,0.40
2023-10-20T13:14:27.162Z,0.40
2023-10-20T13:16:53.806Z,0.25
2023-10-20T13:19:20.204Z,1.00
2023-10-20T13:21:46.646Z,0.75
2023-10-20T13:24:13.079Z,0.50
2023-10-20T13:26:39.612Z,0.25
2023-10-20T13:29:07.125Z,0.25
2023-10-20T13:31:34.965Z,0.67
2023-10-20T13:34:03.172Z,1.00
2023-10-20T13:36:29.602Z,0.00
2023-10-20T13:38:56.061Z,0.00
2023-10-20T13:41:22.536Z,0.00
2023-10-20T13:43:50.066Z,0.40
2023-10-20T13:46:17.541Z,1.00
2023-10-20T13:48:44.101Z,0.20
2023-10-20T13:51:10.514Z,0.00
2023-10-20T13:53:37.232Z,0.00
2023-10-20T13:56:03.920Z,0.00
2023-10-20T13:58:30.309Z,0.75
2023-10-20T14:00:56.803Z,0.00
2023-10-20T14:03:23.333Z,1.00
2023-10-20T14:05:55.750Z,0.00
2023-10-20T14:08:22.862Z,0.67
2023-10-20T14:10:49.765Z,0.00
2023-10-20T14:13:16.886Z,0.75
2023-10-20T14:15:44.865Z,0.50
2023-10-20T14:18:11.665Z,0.60
2023-10-20T14:20:40.419Z,0.00
2023-10-20T14:23:07.217Z,1.00
2023-10-20T14:25:33.689Z,0.00
2023-10-20T14:28:00.154Z,0.00
2023-10-20T14:30:26.747Z,1.00
2023-10-20T14:32:53.301Z,0.80
2023-10-20T14:35:19.772Z,0.00
2023-10-20T14:37:46.160Z,0.50
2023-10-20T14:40:12.768Z,0.00
2023-10-20T14:42:39.185Z,1.40
2023-10-20T14:45:07.474Z,0.00
2023-10-20T14:47:34.031Z,1.00
2023-10-20T14:50:00.542Z,1.40
2023-10-20T14:52:30.127Z,0.75
2023-10-20T14:54:56.938Z,0.75
2023-10-20T14:57:24.546Z,0.50
2023-10-20T14:59:51.358Z,0.50
2023-10-20T15:02:17.889Z,0.75
2023-10-20T15:04:44.562Z,0.60
2023-10-20T15:07:11.607Z,0.40
2023-10-20T15:09:38.274Z,0.40
2023-10-20T15:12:04.960Z,0.80
2023-10-20T15:14:31.520Z,0.25
2023-10-20T15:16:58.588Z,0.60
2023-10-20T15:19:25.096Z,2.00
2023-10-20T15:21:51.540Z,1.00
2023-10-20T15:24:17.959Z,1.00
2023-10-20T15:26:46.613Z,0.60
2023-10-20T15:29:13.209Z,1.33
2023-10-20T15:31:40.782Z,0.25
2023-10-20T15:34:07.247Z,1.60
2023-10-20T15:36:46.105Z,0.50
2023-10-20T15:39:13.153Z,1.75
2023-10-20T15:41:39.609Z,1.00
2023-10-20T15:44:06.078Z,1.25
2023-10-20T15:46:32.499Z,1.60
2023-10-20T15:48:58.940Z,1.00
2023-10-20T15:51:25.383Z,0.75
2023-10-20T15:53:52.986Z,1.00
2023-10-20T15:56:19.456Z,0.20
2023-10-20T15:58:45.875Z,0.75
2023-10-20T16:01:13.024Z,2.00
2023-10-20T16:03:39.622Z,1.80
2023-10-20T16:06:12.029Z,1.00
2023-10-20T16:08:41.254Z,0.60
2023-10-20T16:11:07.781Z,0.75
2023-10-20T16:13:34.427Z,0.00
2023-10-20T16:16:00.947Z,1.40
2023-10-20T16:18:27.507Z,1.40
2023-10-20T16:20:54.177Z,1.50
2023-10-20T16:23:20.853Z,2.40
2023-10-20T16:25:47.442Z,1.00
2023-10-20T16:28:13.976Z,1.40
2023-10-20T16:30:40.425Z,0.75
2023-10-20T16:33:07.345Z,1.60
2023-10-20T16:35:33.861Z,1.40
2023-10-20T16:38:00.355Z,0.00
2023-10-20T16:40:28.537Z,2.00
2023-10-20T16:42:54.971Z,1.00
2023-10-20T16:45:21.438Z,0.75
2023-10-20T16:47:47.935Z,3.50
2023-10-20T16:50:16.323Z,1.60
2023-10-20T16:52:43.494Z,0.40
2023-10-20T16:55:10.156Z,0.25
2023-10-20T16:57:36.754Z,0.75
2023-10-20T17:00:06.862Z,0.25
2023-10-20T17:02:33.632Z,2.80
2023-10-20T17:05:00.235Z,2.50
2023-10-20T17:07:26.736Z,1.00
2023-10-20T17:09:53.162Z,2.00
2023-10-20T17:12:19.599Z,1.50
2023-10-20T17:14:46.066Z,0.40
2023-10-20T17:17:12.501Z,1.20
2023-10-20T17:19:38.990Z,0.40
2023-10-20T17:22:05.430Z,1.50
2023-10-20T17:24:31.899Z,1.80
2023-10-20T17:26:58.397Z,1.00
2023-10-20T17:29:24.821Z,0.60
2023-10-20T17:31:51.277Z,2.00
2023-10-20T17:34:17.697Z,0.40
2023-10-20T17:36:44.228Z,2.00
2023-10-20T17:39:11.603Z,0.40
2023-10-20T17:41:38.508Z,0.75
2023-10-20T17:44:06.551Z,0.25
2023-10-20T17:46:34.034Z,0.60
2023-10-20T17:49:00.559Z,1.50
2023-10-20T17:51:26.978Z,0.67
2023-10-20T17:53:53.460Z,2.60
2023-10-20T17:56:19.950Z,0.60
2023-10-20T17:58:46.370Z,0.50
2023-10-20T18:01:12.891Z,2.60
2023-10-20T18:03:40.972Z,2.00
2023-10-20T18:06:09.825Z,0.50
2023-10-20T18:08:37.730Z,0.75
2023-10-20T18:11:05.764Z,1.00
2023-10-20T18:13:34.031Z,1.00
2023-10-20T18:16:01.249Z,2.00
2023-10-20T18:18:27.813Z,1.50
2023-10-20T18:20:54.389Z,1.00
2023-10-20T18:23:20.860Z,0.80
2023-10-20T18:25:48.327Z,2.00
2023-10-20T18:28:14.780Z,0.40
2023-10-20T18:30:41.245Z,1.25
2023-10-20T18:33:07.761Z,0.60
2023-10-20T18:35:35.147Z,2.33
2023-10-20T18:38:01.775Z,1.40
2023-10-20T18:40:28.174Z,1.60
2023-10-20T18:42:55.193Z,1.60
2023-10-20T18:45:21.667Z,1.00
2023-10-20T18:47:48.191Z,1.20
2023-10-20T18:50:14.758Z,0.00
2023-10-20T18:52:41.240Z,0.00
2023-10-20T18:55:07.809Z,1.00
2023-10-20T18:57:34.265Z,0.60
2023-10-20T19:00:00.784Z,0.50
2023-10-20T19:02:27.324Z,0.60
2023-10-20T19:04:53.791Z,0.00
2023-10-20T19:07:20.266Z,0.00
2023-10-20T19:09:46.951Z,0.40
2023-10-20T19:12:13.397Z,0.00
2023-10-20T19:14:39.882Z,0.50
2023-10-20T19:17:06.472Z,0.60
2023-10-20T19:19:33.049Z,3.00
2023-10-20T19:21:59.553Z,0.40
2023-10-20T19:24:26.372Z,0.50
2023-10-20T19:26:52.960Z,0.00
2023-10-20T19:29:20.440Z,0.00
2023-10-20T19:31:46.975Z,0.00
2023-10-20T19:34:13.875Z,0.00
2023-10-20T19:36:40.388Z,0.00
2023-10-20T19:39:10.457Z,0.00
2023-10-20T19:41:38.164Z,0.00
2023-10-20T19:44:04.641Z,0.00
2023-10-20T19:46:31.160Z,0.00
2023-10-20T19:48:57.636Z,0.00
2023-10-20T19:51:24.178Z,0.00
2023-10-20T19:53:50.874Z,0.00
2023-10-20T19:56:17.884Z,0.00
2023-10-20T19:58:47.036Z,0.00
2023-10-20T20:01:13.527Z,0.00
2023-10-20T20:03:40.136Z,0.00
2023-10-20T20:06:13.122Z,0.40
2023-10-20T20:08:40.280Z,0.00
2023-10-20T20:11:06.743Z,0.00
2023-10-20T20:13:33.337Z,0.00
2023-10-20T20:16:06.619Z,0.00
2023-10-20T20:18:33.594Z,0.00
2023-10-20T20:21:00.302Z,0.00
2023-10-20T20:23:26.912Z,0.00
2023-10-20T20:25:53.373Z,0.00
2023-10-20T20:28:20.397Z,0.00
2023-10-20T20:30:46.913Z,0.00
2023-10-20T20:33:13.468Z,0.00
2023-10-20T20:35:40.037Z,0.00
2023-10-20T20:38:06.555Z,0.00
2023-10-20T20:40:33.803Z,0.00
2023-10-20T20:43:00.324Z,0.00
2023-10-20T20:45:26.942Z,0.00
2023-10-20T20:47:53.536Z,0.00
2023-10-20T20:50:32.233Z,0.00
2023-10-20T20:53:00.613Z,0.00
2023-10-20T20:55:27.092Z,0.60
2023-10-20T20:57:53.547Z,0.00
2023-10-20T21:00:19.991Z,0.00
2023-10-20T21:02:46.647Z,0.00
2023-10-20T21:05:13.919Z,0.00
2023-10-20T21:07:40.392Z,0.00
2023-10-20T21:10:09.378Z,0.00
2023-10-20T21:12:35.919Z,0.00
2023-10-20T21:15:02.553Z,0.00
2023-10-20T21:17:29.055Z,0.00
2023-10-20T21:19:56.055Z,0.00
2023-10-20T21:22:22.492Z,0.00
2023-10-20T21:24:48.960Z,0.00
2023-10-20T21:27:15.562Z,0.00
2023-10-20T21:29:42.003Z,0.40
2023-10-20T21:32:08.408Z,0.00
2023-10-20T21:34:34.831Z,0.00
2023-10-20T21:37:01.255Z,0.00
2023-10-20T21:39:28.310Z,0.00
2023-10-20T21:41:55.641Z,0.00
2023-10-20T21:44:22.133Z,0.00
2023-10-20T21:46:48.706Z,0.00
2023-10-20T21:49:15.535Z,0.00
2023-10-20T21:51:41.959Z,0.00
2023-10-20T21:54:08.554Z,0.00
2023-10-20T21:56:35.088Z,0.00
2023-10-20T21:59:01.542Z,0.00
2023-10-20T22:01:27.992Z,0.00
2023-10-20T22:03:54.585Z,0.00
2023-10-20T22:06:21.093Z,0.00
2023-10-20T22:08:47.681Z,0.00
2023-10-20T22:11:14.314Z,0.00
2023-10-20T22:13:40.734Z,0.00
2023-10-20T22:16:08.083Z,0.00
2023-10-20T22:18:34.720Z,0.00
2023-10-20T22:21:01.246Z,0.00
2023-10-20T22:23:27.762Z,1.00
2023-10-20T22:25:54.215Z,0.00
2023-10-20T22:28:20.665Z,0.00
2023-10-20T22:30:47.246Z,0.00
2023-10-20T22:33:13.798Z,0.00
2023-10-20T22:35:40.806Z,0.00
2023-10-20T22:38:07.313Z,0.00
2023-10-20T22:40:34.281Z,0.00
2023-10-20T22:43:00.715Z,0.00
2023-10-20T22:45:27.142Z,0.00
2023-10-20T22:47:53.650Z,0.00
2023-10-20T22:50:20.473Z,1.00
2023-10-20T22:52:48.852Z,0.00
2023-10-20T22:55:15.726Z,0.00
2023-10-20T22:57:42.175Z,0.00
2023-10-20T23:00:10.834Z,0.00
2023-10-20T23:02:38.836Z,0.00
2023-10-20T23:05:06.285Z,0.00
2023-10-20T23:07:32.733Z,0.00
2023-10-20T23:09:59.214Z,0.00
2023-10-20T23:12:25.649Z,0.00
2023-10-20T23:14:52.163Z,0.00
2023-10-20T23:17:18.628Z,0.00
2023-10-20T23:19:45.082Z,0.00
2023-10-20T23:22:11.565Z,0.00
2023-10-20T23:24:37.972Z,0.00
2023-10-20T23:27:04.475Z,0.00
2023-10-20T23:29:30.945Z,0.00
2023-10-20T23:31:57.443Z,0.00
2023-10-20T23:34:23.901Z,0.00
2023-10-20T23:36:50.358Z,0.00
2023-10-20T23:39:17.425Z,0.00
2023-10-20T23:41:43.898Z,0.00
2023-10-20T23:44:10.429Z,0.00
2023-10-20T23:46:36.810Z,0.00
2023-10-20T23:49:04.455Z,0.00
2023-10-20T23:51:30.912Z,0.00
2023-10-20T23:53:58.201Z,0.00
2023-10-20T23:56:26.097Z,0.00
2023-10-20T23:58:52.588Z,0.00
